Time;durP1;ratioP1;P1;durP2;ratioP2;P2;SDS_P1;SDS_P2;PMS_P1;PMS_P2;Temp;Humidity;BMP_temperature;BMP_pressure;BME280_temperature;BME280_humidity;BME280_pressure;Samples;Min_cycle;Max_cycle;Signal;HPM_P1;HPM_P2
2023/05/25 00:01:02;;;;;;;;;1.75;1.00;;;;;;;;5055837;28;45618;-79
2023/05/25 00:03:27;;;;;;;;;1.50;1.50;;;;;;;;5056122;28;45390;-79
2023/05/25 00:05:53;;;;;;;;;2.50;1.00;;;;;;;;5056515;28;45363;-79
2023/05/25 00:08:18;;;;;;;;;2.00;2.00;;;;;;;;5055937;28;46371;-79
2023/05/25 00:10:43;;;;;;;;;4.67;1.00;;;;;;;;5055950;28;45371;-79
2023/05/25 00:13:09;;;;;;;;;5.00;2.00;;;;;;;;5055221;28;45285;-79
2023/05/25 00:15:34;;;;;;;;;3.00;1.00;;;;;;;;5055270;28;45582;-79
2023/05/25 00:17:59;;;;;;;;;2.75;1.75;;;;;;;;5055277;28;46311;-80
2023/05/25 00:20:24;;;;;;;;;5.50;2.50;;;;;;;;5056312;28;45502;-79
2023/05/25 00:22:51;;;;;;;;;3.00;2.00;;;;;;;;5056107;28;45222;-79
2023/05/25 00:25:16;;;;;;;;;1.50;1.50;;;;;;;;5055252;28;45310;-79
2023/05/25 00:27:41;;;;;;;;;1.25;1.00;;;;;;;;5055733;28;45352;-79
2023/05/25 00:30:07;;;;;;;;;2.00;2.00;;;;;;;;5055358;28;45343;-79
2023/05/25 00:32:32;;;;;;;;;3.75;1.75;;;;;;;;5055258;28;46393;-79
2023/05/25 00:34:57;;;;;;;;;2.00;0.00;;;;;;;;5055599;28;45424;-79
2023/05/25 00:37:22;;;;;;;;;2.00;2.00;;;;;;;;5055379;28;45415;-79
2023/05/25 00:39:47;;;;;;;;;3.67;1.67;;;;;;;;5037464;28;45860;-79
2023/05/25 00:42:14;;;;;;;;;4.00;2.00;;;;;;;;5054339;28;45659;-79
2023/05/25 00:44:39;;;;;;;;;5.00;1.00;;;;;;;;5037358;28;45593;-79
2023/05/25 00:47:04;;;;;;;;;2.00;2.00;;;;;;;;5054216;28;45391;-79
2023/05/25 00:49:32;;;;;;;;;3.00;2.00;;;;;;;;5055252;28;45354;-79
2023/05/25 00:51:59;;;;;;;;;1.00;1.00;;;;;;;;5054941;28;45627;-80
2023/05/25 00:54:24;;;;;;;;;5.25;3.00;;;;;;;;5055522;28;45542;-79
2023/05/25 00:56:51;;;;;;;;;2.50;2.50;;;;;;;;5054253;28;45439;-79
2023/05/25 00:59:19;;;;;;;;;2.50;1.75;;;;;;;;5053923;28;45952;-79
2023/05/25 01:01:46;;;;;;;;;5.00;2.00;;;;;;;;5053464;28;45856;-79
2023/05/25 01:04:13;;;;;;;;;2.00;2.00;;;;;;;;5054448;28;45304;-79
2023/05/25 01:06:41;;;;;;;;;5.50;2.50;;;;;;;;5054702;28;46270;-79
2023/05/25 01:09:07;;;;;;;;;3.75;2.50;;;;;;;;5054222;28;45222;-79
2023/05/25 01:11:37;;;;;;;;;2.00;2.00;;;;;;;;5054841;28;45293;-79
2023/05/25 01:14:02;;;;;;;;;10.25;3.00;;;;;;;;5053820;28;45780;-79
2023/05/25 01:16:28;;;;;;;;;3.00;3.00;;;;;;;;5054692;28;46313;-79
2023/05/25 01:18:54;;;;;;;;;2.00;2.00;;;;;;;;5055065;28;45384;-79
2023/05/25 01:21:21;;;;;;;;;2.25;2.00;;;;;;;;5054270;28;45510;-79
2023/05/25 01:23:51;;;;;;;;;5.25;2.50;;;;;;;;5054319;28;45520;-79
2023/05/25 01:26:18;;;;;;;;;3.75;3.00;;;;;;;;5053304;28;46511;-79
2023/05/25 01:28:46;;;;;;;;;4.50;3.00;;;;;;;;5054065;28;45954;-79
2023/05/25 01:31:14;;;;;;;;;5.75;3.00;;;;;;;;5053697;28;45308;-79
2023/05/25 01:33:40;;;;;;;;;4.00;2.25;;;;;;;;5054832;28;45872;-78
2023/05/25 01:36:06;;;;;;;;;3.00;3.00;;;;;;;;5053405;28;46575;-79
2023/05/25 01:38:31;;;;;;;;;2.25;2.25;;;;;;;;5054323;28;45478;-78
2023/05/25 01:40:56;;;;;;;;;3.25;3.00;;;;;;;;5054708;28;45461;-79
2023/05/25 01:43:22;;;;;;;;;3.33;2.00;;;;;;;;5054478;28;45408;-79
2023/05/25 01:45:47;;;;;;;;;5.00;2.00;;;;;;;;5053777;28;45890;-79
2023/05/25 01:48:18;;;;;;;;;5.00;2.25;;;;;;;;5054080;28;45348;-79
2023/05/25 01:50:52;;;;;;;;;9.00;3.00;;;;;;;;5054480;28;45459;-79
2023/05/25 01:53:21;;;;;;;;;4.25;2.25;;;;;;;;5053417;28;45920;-79
2023/05/25 01:55:56;;;;;;;;;2.75;2.75;;;;;;;;5054142;28;45768;-80
2023/05/25 01:58:22;;;;;;;;;5.25;3.25;;;;;;;;5053586;28;45411;-79
2023/05/25 02:00:48;;;;;;;;;4.50;3.00;;;;;;;;5053561;28;45391;-79
2023/05/25 02:03:13;;;;;;;;;4.25;3.75;;;;;;;;5053327;28;45567;-79
2023/05/25 02:05:40;;;;;;;;;7.25;2.25;;;;;;;;5053527;28;46564;-79
2023/05/25 02:08:05;;;;;;;;;4.00;4.00;;;;;;;;5053540;28;45824;-79
2023/05/25 02:10:30;;;;;;;;;5.00;4.00;;;;;;;;5053279;28;45234;-79
2023/05/25 02:12:56;;;;;;;;;4.00;2.00;;;;;;;;5053746;28;46269;-79
2023/05/25 02:15:21;;;;;;;;;8.00;3.67;;;;;;;;5053866;28;45547;-79
2023/05/25 02:17:47;;;;;;;;;4.25;2.00;;;;;;;;5053544;28;45429;-79
2023/05/25 02:20:12;;;;;;;;;6.00;4.00;;;;;;;;5052939;28;45992;-79
2023/05/25 02:22:37;;;;;;;;;3.00;3.00;;;;;;;;5053431;28;45545;-78
2023/05/25 02:25:03;;;;;;;;;2.00;1.00;;;;;;;;5053566;28;45418;-79
2023/05/25 02:27:28;;;;;;;;;3.50;2.00;;;;;;;;5053353;28;45323;-79
2023/05/25 02:29:53;;;;;;;;;5.33;3.00;;;;;;;;5053533;28;45235;-79
2023/05/25 02:32:18;;;;;;;;;4.00;3.67;;;;;;;;5053972;28;45186;-79
2023/05/25 02:34:43;;;;;;;;;2.00;2.00;;;;;;;;5053411;28;45429;-79
2023/05/25 02:37:09;;;;;;;;;3.00;2.67;;;;;;;;5053495;28;45909;-79
2023/05/25 02:39:34;;;;;;;;;2.00;2.00;;;;;;;;5053095;28;46413;-79
2023/05/25 02:42:00;;;;;;;;;4.00;2.00;;;;;;;;5053329;28;45614;-79
2023/05/25 02:44:25;;;;;;;;;4.50;1.75;;;;;;;;5053941;28;46196;-79
2023/05/25 02:46:50;;;;;;;;;1.33;1.00;;;;;;;;5053057;28;45522;-78
2023/05/25 02:49:15;;;;;;;;;3.00;2.00;;;;;;;;5053062;28;45385;-79
2023/05/25 02:51:40;;;;;;;;;4.00;2.00;;;;;;;;5053861;28;45405;-78
2023/05/25 02:54:06;;;;;;;;;3.00;2.00;;;;;;;;5052996;28;45471;-79
2023/05/25 02:56:31;;;;;;;;;6.33;3.00;;;;;;;;5053068;28;45513;-79
2023/05/25 02:58:56;;;;;;;;;4.00;2.00;;;;;;;;5053621;28;45429;-79
2023/05/25 03:01:24;;;;;;;;;4.33;3.00;;;;;;;;5052625;28;45390;-79
2023/05/25 03:03:52;;;;;;;;;7.25;2.75;;;;;;;;5052849;28;46356;-79
2023/05/25 03:06:17;;;;;;;;;7.25;3.75;;;;;;;;5052026;28;45722;-79
2023/05/25 03:08:42;;;;;;;;;3.67;3.67;;;;;;;;5052027;28;45390;-79
2023/05/25 03:11:07;;;;;;;;;6.00;3.00;;;;;;;;5051578;28;45360;-78
2023/05/25 03:13:33;;;;;;;;;3.33;3.00;;;;;;;;5051974;28;45616;-79
2023/05/25 03:15:58;;;;;;;;;4.25;3.00;;;;;;;;5051544;28;45803;-79
2023/05/25 03:18:23;;;;;;;;;4.67;3.00;;;;;;;;5034291;28;45711;-79
2023/05/25 03:20:48;;;;;;;;;3.00;2.33;;;;;;;;5052674;28;45327;-79
2023/05/25 03:23:13;;;;;;;;;4.33;2.00;;;;;;;;5052749;28;47310;-79
2023/05/25 03:25:39;;;;;;;;;4.00;3.00;;;;;;;;5052765;28;45336;-79
2023/05/25 03:28:04;;;;;;;;;4.00;2.67;;;;;;;;5052688;28;45769;-79
2023/05/25 03:30:30;;;;;;;;;4.75;3.25;;;;;;;;5052969;28;45550;-78
2023/05/25 03:32:55;;;;;;;;;4.50;2.50;;;;;;;;5053090;28;45694;-78
2023/05/25 03:35:20;;;;;;;;;5.00;2.50;;;;;;;;5052759;28;45423;-79
2023/05/25 03:37:46;;;;;;;;;5.50;3.00;;;;;;;;5052738;28;45375;-79
2023/05/25 03:40:11;;;;;;;;;7.00;2.67;;;;;;;;5052047;28;45412;-78
2023/05/25 03:42:36;;;;;;;;;4.00;2.75;;;;;;;;5052314;28;45427;-79
2023/05/25 03:45:02;;;;;;;;;3.67;2.00;;;;;;;;5052367;28;45392;-79
2023/05/25 03:47:27;;;;;;;;;4.00;3.00;;;;;;;;5052639;28;45467;-79
2023/05/25 03:49:52;;;;;;;;;4.00;2.67;;;;;;;;5052796;28;45352;-79
2023/05/25 03:52:17;;;;;;;;;5.00;2.00;;;;;;;;5052157;28;46664;-79
2023/05/25 03:54:42;;;;;;;;;4.00;3.00;;;;;;;;5051855;28;45531;-79
2023/05/25 03:57:08;;;;;;;;;3.67;2.67;;;;;;;;5052376;28;45335;-79
2023/05/25 03:59:33;;;;;;;;;4.75;2.00;;;;;;;;5052416;28;45494;-79
2023/05/25 04:01:58;;;;;;;;;8.00;4.00;;;;;;;;5052330;28;46328;-80
2023/05/25 04:04:23;;;;;;;;;4.00;2.33;;;;;;;;5052872;28;45479;-79
2023/05/25 04:06:50;;;;;;;;;2.00;2.00;;;;;;;;5052561;28;45670;-79
2023/05/25 04:09:15;;;;;;;;;4.50;3.00;;;;;;;;5051730;28;45632;-79
2023/05/25 04:11:41;;;;;;;;;3.25;3.00;;;;;;;;5052458;28;45452;-79
2023/05/25 04:14:06;;;;;;;;;2.67;1.67;;;;;;;;5051480;28;46549;-79
2023/05/25 04:16:31;;;;;;;;;2.00;2.00;;;;;;;;5053916;28;45207;-80
2023/05/25 04:18:56;;;;;;;;;4.00;3.00;;;;;;;;5056131;28;45420;-79
2023/05/25 04:21:21;;;;;;;;;4.00;3.00;;;;;;;;5055484;28;45446;-79
2023/05/25 04:23:47;;;;;;;;;4.00;4.00;;;;;;;;5037354;28;45792;-79
2023/05/25 04:26:14;;;;;;;;;4.00;1.67;;;;;;;;5055130;28;46402;-78
2023/05/25 04:28:39;;;;;;;;;6.50;2.00;;;;;;;;5055048;28;45372;-79
2023/05/25 04:31:05;;;;;;;;;4.25;2.00;;;;;;;;5054806;28;46121;-79
2023/05/25 04:33:30;;;;;;;;;4.25;2.00;;;;;;;;5055258;28;45356;-79
2023/05/25 04:35:57;;;;;;;;;7.00;3.00;;;;;;;;5055410;28;45453;-79
2023/05/25 04:38:23;;;;;;;;;4.25;2.75;;;;;;;;5055638;28;45402;-79
2023/05/25 04:40:49;;;;;;;;;3.50;2.00;;;;;;;;5055272;28;46178;-79
2023/05/25 04:43:17;;;;;;;;;4.00;2.00;;;;;;;;5055344;28;45467;-78
2023/05/25 04:45:44;;;;;;;;;6.75;3.00;;;;;;;;5054716;28;45336;-78
2023/05/25 04:48:10;;;;;;;;;4.75;1.00;;;;;;;;5055342;28;45594;-79
2023/05/25 04:50:36;;;;;;;;;3.75;2.00;;;;;;;;5055743;28;45794;-79
2023/05/25 04:53:01;;;;;;;;;3.00;3.00;;;;;;;;5055206;28;45826;-79
2023/05/25 04:55:26;;;;;;;;;7.33;2.33;;;;;;;;5055701;28;45498;-80
2023/05/25 04:57:52;;;;;;;;;2.00;2.00;;;;;;;;5055786;28;45339;-79
2023/05/25 05:00:17;;;;;;;;;4.50;3.25;;;;;;;;5054456;28;46527;-79
2023/05/25 05:02:43;;;;;;;;;4.25;2.50;;;;;;;;5055412;28;45419;-79
2023/05/25 05:05:08;;;;;;;;;9.00;4.67;;;;;;;;5055119;28;45340;-79
2023/05/25 05:07:33;;;;;;;;;4.25;2.00;;;;;;;;5054814;28;45371;-79
2023/05/25 05:09:58;;;;;;;;;2.33;2.33;;;;;;;;5054841;28;46528;-80
2023/05/25 05:12:24;;;;;;;;;7.67;3.33;;;;;;;;5055219;28;46417;-79
2023/05/25 05:14:49;;;;;;;;;6.67;3.33;;;;;;;;5055379;28;45504;-79
2023/05/25 05:17:14;;;;;;;;;5.00;2.00;;;;;;;;5054976;28;45517;-79
2023/05/25 05:19:39;;;;;;;;;7.33;3.00;;;;;;;;5055159;28;45373;-78
2023/05/25 05:22:07;;;;;;;;;3.00;2.00;;;;;;;;5054413;28;45269;-79
2023/05/25 05:24:32;;;;;;;;;3.00;3.00;;;;;;;;5055060;28;45474;-80
2023/05/25 05:26:57;;;;;;;;;4.67;3.00;;;;;;;;5055283;28;45233;-81
2023/05/25 05:29:22;;;;;;;;;8.00;4.00;;;;;;;;5054107;28;46450;-79
2023/05/25 05:31:48;;;;;;;;;3.00;2.00;;;;;;;;5054893;28;45388;-80
2023/05/25 05:34:13;;;;;;;;;6.33;3.00;;;;;;;;5054253;28;45601;-79
2023/05/25 05:36:38;;;;;;;;;6.33;3.00;;;;;;;;5054258;28;45257;-81
2023/05/25 05:39:03;;;;;;;;;4.00;3.00;;;;;;;;5054428;28;45300;-81
2023/05/25 05:41:29;;;;;;;;;5.00;2.67;;;;;;;;5054818;28;45420;-80
2023/05/25 05:43:54;;;;;;;;;4.75;2.00;;;;;;;;5054916;28;45218;-80
2023/05/25 05:46:19;;;;;;;;;3.00;2.00;;;;;;;;5054398;28;45402;-79
2023/05/25 05:48:45;;;;;;;;;8.00;3.67;;;;;;;;5054450;28;45983;-81
2023/05/25 05:51:10;;;;;;;;;7.67;5.00;;;;;;;;5053606;28;45416;-81
2023/05/25 05:53:35;;;;;;;;;7.50;3.00;;;;;;;;5054518;28;45369;-81
2023/05/25 05:56:01;;;;;;;;;2.67;2.00;;;;;;;;5054440;28;45354;-80
2023/05/25 05:58:27;;;;;;;;;6.75;2.75;;;;;;;;5054574;28;45312;-80
2023/05/25 06:00:53;;;;;;;;;7.00;3.50;;;;;;;;5054542;28;45440;-80
2023/05/25 06:03:18;;;;;;;;;3.25;2.25;;;;;;;;5054190;28;45837;-80
2023/05/25 06:05:43;;;;;;;;;3.75;2.50;;;;;;;;5053852;28;46644;-81
2023/05/25 06:08:09;;;;;;;;;4.00;2.00;;;;;;;;5053567;28;45525;-80
2023/05/25 06:10:34;;;;;;;;;5.75;2.75;;;;;;;;5054223;28;45720;-80
2023/05/25 06:13:00;;;;;;;;;4.25;2.25;;;;;;;;5054291;28;46428;-80
2023/05/25 06:15:25;;;;;;;;;8.25;2.50;;;;;;;;5054392;28;45450;-80
2023/05/25 06:17:50;;;;;;;;;2.67;2.67;;;;;;;;5054282;28;46272;-81
2023/05/25 06:20:15;;;;;;;;;2.33;2.00;;;;;;;;5053779;28;45317;-80
2023/05/25 06:22:40;;;;;;;;;5.00;3.00;;;;;;;;5054030;28;45535;-80
2023/05/25 06:25:09;;;;;;;;;9.33;3.67;;;;;;;;5054045;28;45349;-79
2023/05/25 06:27:34;;;;;;;;;6.75;4.50;;;;;;;;5053926;28;46259;-81
2023/05/25 06:29:59;;;;;;;;;3.50;2.00;;;;;;;;5053628;28;45304;-80
2023/05/25 06:32:25;;;;;;;;;8.75;3.00;;;;;;;;5054674;28;45393;-80
2023/05/25 06:34:50;;;;;;;;;6.33;3.67;;;;;;;;5052794;28;45532;-80
2023/05/25 06:37:15;;;;;;;;;2.33;2.00;;;;;;;;5053430;28;45513;-81
2023/05/25 06:39:41;;;;;;;;;5.00;4.00;;;;;;;;5053749;28;45488;-80
2023/05/25 06:42:07;;;;;;;;;4.25;3.00;;;;;;;;5053538;28;45337;-80
2023/05/25 06:44:32;;;;;;;;;3.67;3.33;;;;;;;;5053803;28;45371;-80
2023/05/25 06:46:57;;;;;;;;;6.33;4.00;;;;;;;;5054997;28;45562;-79
2023/05/25 06:49:22;;;;;;;;;4.00;4.00;;;;;;;;5059429;28;45447;-79
2023/05/25 06:51:49;;;;;;;;;3.00;3.00;;;;;;;;5053482;28;45277;-80
2023/05/25 06:54:15;;;;;;;;;4.25;3.00;;;;;;;;5052956;28;45290;-81
2023/05/25 06:56:40;;;;;;;;;4.00;3.00;;;;;;;;5052999;28;45431;-81
2023/05/25 06:59:05;;;;;;;;;4.25;3.75;;;;;;;;5052345;28;45380;-81
2023/05/25 07:01:31;;;;;;;;;4.33;2.00;;;;;;;;5055003;28;45334;-81
2023/05/25 07:03:56;;;;;;;;;3.33;2.00;;;;;;;;5055516;28;45425;-82
2023/05/25 07:06:21;;;;;;;;;4.00;1.00;;;;;;;;5055358;28;46461;-80
2023/05/25 07:08:46;;;;;;;;;3.33;3.00;;;;;;;;5044771;28;45469;-83
2023/05/25 07:11:13;;;;;;;;;2.00;2.00;;;;;;;;5051494;28;45375;-81
2023/05/25 07:13:38;;;;;;;;;2.25;1.50;;;;;;;;5054975;28;45161;-81
2023/05/25 07:16:03;;;;;;;;;2.67;1.67;;;;;;;;5054152;28;45405;-82
2023/05/25 07:18:28;;;;;;;;;1.67;1.67;;;;;;;;5054344;28;45485;-82
2023/05/25 07:20:53;;;;;;;;;3.67;1.00;;;;;;;;5052396;28;45214;-82
2023/05/25 07:23:18;;;;;;;;;4.33;3.33;;;;;;;;5055268;28;45430;-81
2023/05/25 07:25:44;;;;;;;;;3.00;3.00;;;;;;;;5050942;28;46252;-82
2023/05/25 07:28:09;;;;;;;;;5.00;1.25;;;;;;;;5054502;28;45293;-81
2023/05/25 07:30:35;;;;;;;;;2.00;2.00;;;;;;;;5029729;28;45691;-80
2023/05/25 07:33:00;;;;;;;;;5.25;4.25;;;;;;;;5039029;28;45893;-82
2023/05/25 07:35:26;;;;;;;;;2.25;2.00;;;;;;;;5051197;28;45470;-81
2023/05/25 07:38:01;;;;;;;;;2.00;2.00;;;;;;;;5053844;28;45396;-81
2023/05/25 07:40:26;;;;;;;;;4.25;3.25;;;;;;;;5052392;28;45417;-81
2023/05/25 07:42:52;;;;;;;;;3.00;1.75;;;;;;;;5052677;28;45492;-81
2023/05/25 07:45:17;;;;;;;;;2.00;2.00;;;;;;;;5052898;28;46416;-82
2023/05/25 07:47:42;;;;;;;;;2.00;2.00;;;;;;;;5053182;28;45402;-82
2023/05/25 07:50:07;;;;;;;;;2.00;1.75;;;;;;;;5054457;28;45427;-81
2023/05/25 07:52:33;;;;;;;;;2.00;2.00;;;;;;;;5057221;28;45472;-81
2023/05/25 07:54:58;;;;;;;;;1.00;1.00;;;;;;;;5054759;28;46401;-81
2023/05/25 07:57:24;;;;;;;;;2.33;1.00;;;;;;;;5057407;28;45327;-80
2023/05/25 07:59:49;;;;;;;;;1.00;1.00;;;;;;;;5053722;28;45537;-81
2023/05/25 08:02:14;;;;;;;;;1.50;1.00;;;;;;;;5057464;28;45565;-81
2023/05/25 08:04:39;;;;;;;;;1.67;1.67;;;;;;;;5057142;28;45364;-82
2023/05/25 08:07:05;;;;;;;;;3.00;3.00;;;;;;;;5056850;28;45411;-81
2023/05/25 08:09:30;;;;;;;;;8.33;3.33;;;;;;;;5057871;28;45321;-82
2023/05/25 08:11:55;;;;;;;;;3.00;2.00;;;;;;;;5055548;28;45428;-82
2023/05/25 08:14:22;;;;;;;;;1.67;1.67;;;;;;;;5057235;28;45488;-82
2023/05/25 08:16:47;;;;;;;;;3.00;1.00;;;;;;;;5057256;28;45712;-81
2023/05/25 08:19:12;;;;;;;;;4.00;1.67;;;;;;;;5057217;28;45228;-82
2023/05/25 08:21:39;;;;;;;;;1.00;1.00;;;;;;;;5049308;28;45463;-82
2023/05/25 08:24:04;;;;;;;;;1.00;1.00;;;;;;;;5054374;28;46317;-80
2023/05/25 08:26:30;;;;;;;;;3.00;1.00;;;;;;;;5057410;28;45383;-81
2023/05/25 08:28:56;;;;;;;;;2.50;1.00;;;;;;;;5057273;28;45393;-81
2023/05/25 08:31:21;;;;;;;;;2.25;1.00;;;;;;;;5050429;28;45704;-80
2023/05/25 08:33:46;;;;;;;;;1.00;1.00;;;;;;;;5046772;28;46457;-80
2023/05/25 08:36:11;;;;;;;;;3.67;1.00;;;;;;;;5043187;28;45479;-80
2023/05/25 08:38:37;;;;;;;;;2.67;2.00;;;;;;;;5043322;28;45433;-81
2023/05/25 08:41:04;;;;;;;;;3.00;1.33;;;;;;;;5049123;28;45787;-80
2023/05/25 08:43:29;;;;;;;;;1.75;1.00;;;;;;;;5049627;28;46276;-81
2023/05/25 08:45:58;;;;;;;;;1.67;1.00;;;;;;;;5056999;28;45392;-79
2023/05/25 08:48:25;;;;;;;;;1.50;0.25;;;;;;;;5056162;28;45551;-80
2023/05/25 08:50:51;;;;;;;;;0.25;0.25;;;;;;;;5043850;28;45654;-79
2023/05/25 08:53:17;;;;;;;;;0.75;0.00;;;;;;;;5056509;28;45763;-80
2023/05/25 08:55:43;;;;;;;;;1.00;0.50;;;;;;;;5048019;28;45479;-79
2023/05/25 08:58:12;;;;;;;;;3.00;0.25;;;;;;;;5056624;28;45318;-81
2023/05/25 09:00:41;;;;;;;;;2.00;1.00;;;;;;;;5057317;28;45481;-82
2023/05/25 09:03:16;;;;;;;;;3.00;1.75;;;;;;;;5055029;28;46467;-81
2023/05/25 09:05:41;;;;;;;;;1.00;0.50;;;;;;;;5056493;28;45418;-81
2023/05/25 09:08:07;;;;;;;;;1.00;1.00;;;;;;;;5056643;28;45465;-80
2023/05/25 09:10:34;;;;;;;;;0.00;0.00;;;;;;;;5056871;28;45574;-80
2023/05/25 09:13:00;;;;;;;;;1.00;1.00;;;;;;;;5056080;28;45677;-80
2023/05/25 09:15:25;;;;;;;;;1.50;0.00;;;;;;;;5038739;28;45674;-80
2023/05/25 09:17:50;;;;;;;;;2.00;1.00;;;;;;;;5057229;28;45309;-81
2023/05/25 09:20:17;;;;;;;;;1.00;1.00;;;;;;;;5056788;28;45337;-81
2023/05/25 09:22:42;;;;;;;;;1.00;0.50;;;;;;;;5055785;28;45765;-81
2023/05/25 09:25:09;;;;;;;;;0.50;0.00;;;;;;;;5044812;28;45410;-80
2023/05/25 09:27:35;;;;;;;;;1.25;1.00;;;;;;;;5056440;28;45691;-80
2023/05/25 09:30:01;;;;;;;;;3.00;1.00;;;;;;;;5056667;28;45530;-81
2023/05/25 09:32:26;;;;;;;;;4.00;1.00;;;;;;;;5056029;28;47565;-81
2023/05/25 09:34:52;;;;;;;;;1.50;1.00;;;;;;;;5056167;28;45367;-80
2023/05/25 09:37:17;;;;;;;;;3.00;1.25;;;;;;;;5056533;28;45508;-81
2023/05/25 09:39:43;;;;;;;;;2.75;0.00;;;;;;;;5056192;28;45597;-81
2023/05/25 09:42:09;;;;;;;;;1.00;1.00;;;;;;;;5052297;28;45874;-81
2023/05/25 09:44:34;;;;;;;;;2.75;1.00;;;;;;;;5056129;28;45862;-82
2023/05/25 09:47:00;;;;;;;;;2.50;1.00;;;;;;;;5056065;28;45359;-81
2023/05/25 09:49:25;;;;;;;;;2.00;1.00;;;;;;;;5056082;28;45411;-82
2023/05/25 09:51:51;;;;;;;;;1.75;0.00;;;;;;;;5051754;28;46097;-81
2023/05/25 09:54:16;;;;;;;;;2.25;1.00;;;;;;;;5055888;28;45775;-80
2023/05/25 09:56:41;;;;;;;;;2.67;0.00;;;;;;;;5055733;28;45300;-82
2023/05/25 09:59:06;;;;;;;;;3.25;1.00;;;;;;;;5025695;28;45324;-81
2023/05/25 10:01:32;;;;;;;;;1.33;1.33;;;;;;;;5055871;28;46732;-81
2023/05/25 10:03:58;;;;;;;;;3.00;1.00;;;;;;;;5055816;28;45296;-81
2023/05/25 10:06:24;;;;;;;;;1.00;1.00;;;;;;;;5055896;28;46602;-82
2023/05/25 10:08:49;;;;;;;;;1.00;1.00;;;;;;;;5055947;28;45519;-81
2023/05/25 10:11:15;;;;;;;;;1.00;1.00;;;;;;;;5055295;28;45949;-82
2023/05/25 10:13:44;;;;;;;;;2.75;1.25;;;;;;;;5055283;28;45770;-82
2023/05/25 10:16:16;;;;;;;;;1.50;0.00;;;;;;;;5052475;28;45470;-81
2023/05/25 10:18:46;;;;;;;;;1.00;1.00;;;;;;;;5055735;28;45382;-81
2023/05/25 10:21:12;;;;;;;;;2.00;1.00;;;;;;;;5055294;28;45413;-82
2023/05/25 10:23:40;;;;;;;;;1.00;0.00;;;;;;;;5055626;28;45742;-81
2023/05/25 10:26:07;;;;;;;;;0.50;0.25;;;;;;;;5055332;28;45492;-82
2023/05/25 10:28:36;;;;;;;;;4.50;1.00;;;;;;;;5055273;28;45456;-81
2023/05/25 10:31:02;;;;;;;;;4.00;2.00;;;;;;;;5054252;28;45339;-81
2023/05/25 10:33:27;;;;;;;;;1.00;0.25;;;;;;;;5053581;28;45313;-81
2023/05/25 10:35:53;;;;;;;;;1.00;1.00;;;;;;;;5051912;28;45460;-82
2023/05/25 10:38:18;;;;;;;;;0.00;0.00;;;;;;;;5055713;28;45317;-79
2023/05/25 10:40:47;;;;;;;;;0.50;0.50;;;;;;;;5056380;28;46564;-81
2023/05/25 10:43:13;;;;;;;;;1.00;1.00;;;;;;;;5055195;28;45381;-80
2023/05/25 10:45:38;;;;;;;;;1.00;1.00;;;;;;;;5055794;28;45431;-80
2023/05/25 10:48:03;;;;;;;;;1.50;1.50;;;;;;;;5052452;28;45423;-80
2023/05/25 10:50:33;;;;;;;;;2.33;1.00;;;;;;;;5049752;28;46189;-82
2023/05/25 10:53:00;;;;;;;;;3.50;2.00;;;;;;;;5036623;28;45710;-80
2023/05/25 10:55:30;;;;;;;;;2.50;1.00;;;;;;;;5055002;28;45420;-81
2023/05/25 10:58:09;;;;;;;;;2.50;1.50;;;;;;;;5055259;28;45424;-81
2023/05/25 11:00:34;;;;;;;;;2.00;1.00;;;;;;;;5055079;28;45400;-82
2023/05/25 11:02:59;;;;;;;;;2.00;1.00;;;;;;;;5054826;28;45441;-81
2023/05/25 11:05:24;;;;;;;;;1.00;1.00;;;;;;;;5048792;28;45467;-81
2023/05/25 11:07:53;;;;;;;;;3.33;1.33;;;;;;;;5049028;28;45463;-80
2023/05/25 11:10:37;;;;;;;;;1.25;1.00;;;;;;;;5054735;28;45501;-79
2023/05/25 11:13:21;;;;;;;;;1.00;1.00;;;;;;;;5054468;28;45772;-81
2023/05/25 11:16:06;;;;;;;;;0.75;0.75;;;;;;;;5055116;28;45502;-79
2023/05/25 11:18:39;;;;;;;;;3.00;2.00;;;;;;;;5054594;28;45475;-80
2023/05/25 11:21:15;;;;;;;;;2.50;1.00;;;;;;;;5054599;28;45555;-81
2023/05/25 11:23:51;;;;;;;;;1.00;1.00;;;;;;;;5046154;28;46067;-81
2023/05/25 11:26:19;;;;;;;;;1.00;1.00;;;;;;;;5050965;28;45478;-81
2023/05/25 11:28:45;;;;;;;;;1.25;1.25;;;;;;;;5054710;28;45574;-80
2023/05/25 11:31:12;;;;;;;;;1.00;1.00;;;;;;;;5054306;28;45373;-82
2023/05/25 11:33:37;;;;;;;;;4.00;1.75;;;;;;;;5054155;28;45684;-81
2023/05/25 11:36:04;;;;;;;;;1.00;1.00;;;;;;;;5054376;28;45644;-82
2023/05/25 11:38:30;;;;;;;;;2.50;2.00;;;;;;;;5054470;28;45602;-81
2023/05/25 11:40:55;;;;;;;;;1.00;1.00;;;;;;;;5042062;28;46155;-82
2023/05/25 11:43:22;;;;;;;;;1.75;1.00;;;;;;;;5054511;28;45741;-79
2023/05/25 11:45:54;;;;;;;;;1.00;1.00;;;;;;;;5054474;28;45527;-79
2023/05/25 11:48:19;;;;;;;;;4.25;1.00;;;;;;;;5054121;28;45457;-79
2023/05/25 11:50:44;;;;;;;;;2.00;1.33;;;;;;;;5050676;28;45431;-79
2023/05/25 11:53:10;;;;;;;;;2.67;1.00;;;;;;;;5052220;28;45439;-80
2023/05/25 11:55:38;;;;;;;;;2.75;1.00;;;;;;;;5054780;28;45381;-80
2023/05/25 11:58:04;;;;;;;;;1.25;0.00;;;;;;;;5050198;28;45749;-80
2023/05/25 12:00:30;;;;;;;;;0.00;0.00;;;;;;;;5053866;28;45498;-80
2023/05/25 12:02:56;;;;;;;;;0.00;0.00;;;;;;;;5043689;28;45554;-80
2023/05/25 12:05:22;;;;;;;;;0.00;0.00;;;;;;;;5052734;28;45362;-80
2023/05/25 12:07:47;;;;;;;;;0.00;0.00;;;;;;;;5053406;28;45472;-79
2023/05/25 12:10:16;;;;;;;;;0.00;0.00;;;;;;;;5049192;28;45702;-79
2023/05/25 12:12:41;;;;;;;;;0.25;0.25;;;;;;;;5049424;28;46111;-79
2023/05/25 12:15:08;;;;;;;;;1.33;0.00;;;;;;;;5049257;28;45601;-79
2023/05/25 12:17:33;;;;;;;;;1.50;0.00;;;;;;;;5054684;28;45359;-79
2023/05/25 12:19:59;;;;;;;;;3.25;0.25;;;;;;;;5053337;28;45462;-79
2023/05/25 12:22:24;;;;;;;;;2.00;0.00;;;;;;;;5047320;28;45475;-79
2023/05/25 12:24:50;;;;;;;;;0.00;0.00;;;;;;;;5054362;28;45380;-79
2023/05/25 12:27:15;;;;;;;;;1.00;0.00;;;;;;;;5054104;28;45902;-80
2023/05/25 12:29:48;;;;;;;;;0.50;0.00;;;;;;;;5054125;28;45392;-80
2023/05/25 12:32:13;;;;;;;;;1.75;0.00;;;;;;;;5053509;28;45542;-81
2023/05/25 12:34:38;;;;;;;;;0.00;0.00;;;;;;;;5053935;28;45742;-80
2023/05/25 12:37:03;;;;;;;;;0.00;0.00;;;;;;;;5054021;28;45543;-80
2023/05/25 12:39:28;;;;;;;;;0.00;0.00;;;;;;;;5057250;28;46634;-79
2023/05/25 12:41:54;;;;;;;;;1.00;0.00;;;;;;;;5057733;28;45665;-80
2023/05/25 12:44:21;;;;;;;;;2.50;0.00;;;;;;;;5056494;28;45321;-80
2023/05/25 12:46:51;;;;;;;;;0.00;0.00;;;;;;;;5054996;28;45332;-81
2023/05/25 12:49:22;;;;;;;;;1.75;0.00;;;;;;;;5055018;28;46100;-81
2023/05/25 12:51:47;;;;;;;;;0.00;0.00;;;;;;;;5056639;28;45285;-82
2023/05/25 12:54:12;;;;;;;;;0.00;0.00;;;;;;;;5052668;28;45290;-81
2023/05/25 12:56:53;;;;;;;;;0.00;0.00;;;;;;;;5056796;28;45358;-81
2023/05/25 12:59:19;;;;;;;;;0.00;0.00;;;;;;;;5056046;28;45543;-82
2023/05/25 13:01:44;;;;;;;;;0.00;0.00;;;;;;;;5056630;28;45504;-81
2023/05/25 13:04:09;;;;;;;;;0.00;0.00;;;;;;;;5049200;28;45368;-80
2023/05/25 13:06:34;;;;;;;;;0.75;0.00;;;;;;;;5046057;28;45703;-81
2023/05/25 13:09:00;;;;;;;;;0.00;0.00;;;;;;;;5046247;28;46138;-82
2023/05/25 13:11:26;;;;;;;;;0.00;0.00;;;;;;;;5056700;28;45395;-81
2023/05/25 13:13:52;;;;;;;;;0.25;0.25;;;;;;;;5054849;28;45462;-81
2023/05/25 13:16:17;;;;;;;;;0.00;0.00;;;;;;;;5056618;28;45353;-82
2023/05/25 13:18:42;;;;;;;;;0.25;0.25;;;;;;;;5060394;28;46239;-81
2023/05/25 13:21:08;;;;;;;;;0.00;0.00;;;;;;;;5055640;28;45218;-81
2023/05/25 13:23:34;;;;;;;;;2.50;1.00;;;;;;;;5055054;28;45381;-81
2023/05/25 13:25:59;;;;;;;;;2.00;0.00;;;;;;;;5048525;28;45476;-82
2023/05/25 13:28:24;;;;;;;;;2.33;2.00;;;;;;;;5047904;28;46213;-81
2023/05/25 13:30:50;;;;;;;;;0.00;0.00;;;;;;;;5056879;28;45411;-81
2023/05/25 13:33:15;;;;;;;;;1.00;1.00;;;;;;;;5056667;28;45170;-81
2023/05/25 13:35:44;;;;;;;;;5.33;1.67;;;;;;;;5053247;28;45263;-81
2023/05/25 13:38:09;;;;;;;;;2.25;1.00;;;;;;;;5048419;28;46201;-82
2023/05/25 13:40:34;;;;;;;;;2.00;1.00;;;;;;;;5053230;28;45416;-82
2023/05/25 13:43:00;;;;;;;;;2.67;1.00;;;;;;;;5056175;28;45423;-80
2023/05/25 13:45:25;;;;;;;;;2.75;2.75;;;;;;;;5055865;28;45767;-81
2023/05/25 13:47:50;;;;;;;;;3.00;2.00;;;;;;;;5055594;28;46098;-81
2023/05/25 13:50:15;;;;;;;;;3.67;1.00;;;;;;;;5051245;28;45446;-81
2023/05/25 13:52:41;;;;;;;;;1.00;1.00;;;;;;;;5049894;28;45539;-82
2023/05/25 13:55:06;;;;;;;;;4.67;1.00;;;;;;;;5056062;28;45463;-81
2023/05/25 13:57:31;;;;;;;;;5.75;1.00;;;;;;;;5055842;28;46048;-81
2023/05/25 13:59:56;;;;;;;;;2.00;0.33;;;;;;;;5056250;28;45388;-82
2023/05/25 14:02:22;;;;;;;;;4.33;0.67;;;;;;;;5037664;28;45517;-82
2023/05/25 14:04:47;;;;;;;;;4.00;1.00;;;;;;;;5056021;28;45544;-82
2023/05/25 14:07:13;;;;;;;;;1.67;0.00;;;;;;;;5055429;28;45571;-81
2023/05/25 14:09:38;;;;;;;;;2.00;1.00;;;;;;;;5055765;28;45498;-82
2023/05/25 14:12:03;;;;;;;;;4.00;1.00;;;;;;;;5055901;28;45360;-83
2023/05/25 14:14:28;;;;;;;;;0.50;0.50;;;;;;;;5055687;28;45281;-81
2023/05/25 14:16:54;;;;;;;;;1.00;1.00;;;;;;;;5055518;28;45262;-82
2023/05/25 14:19:19;;;;;;;;;1.00;1.00;;;;;;;;5055642;28;45343;-82
2023/05/25 14:21:44;;;;;;;;;2.25;1.50;;;;;;;;5055642;28;45277;-82
2023/05/25 14:24:10;;;;;;;;;2.75;0.50;;;;;;;;5055266;28;45499;-81
2023/05/25 14:26:35;;;;;;;;;2.00;1.00;;;;;;;;5055480;28;46452;-83
2023/05/25 14:29:00;;;;;;;;;2.00;0.67;;;;;;;;5049689;28;45331;-82
2023/05/25 14:31:26;;;;;;;;;1.00;1.00;;;;;;;;5052649;28;45643;-82
2023/05/25 14:33:51;;;;;;;;;2.33;1.00;;;;;;;;5055441;28;45738;-82
2023/05/25 14:36:16;;;;;;;;;0.67;0.33;;;;;;;;5055423;28;46307;-81